createdAt,value
2022-08-19T00:01:30.211Z,7.90
2022-08-19T00:03:59.112Z,7.93
2022-08-19T00:06:28.401Z,6.03
2022-08-19T00:08:56.411Z,6.77
2022-08-19T00:11:25.454Z,9.47
2022-08-19T00:13:54.075Z,5.67
2022-08-19T00:16:25.189Z,5.47
2022-08-19T00:18:56.379Z,8.17
2022-08-19T00:21:30.134Z,12.25
2022-08-19T00:23:59.173Z,8.77
2022-08-19T00:26:28.078Z,9.80
2022-08-19T00:28:55.857Z,9.77
2022-08-19T00:31:23.444Z,10.37
2022-08-19T00:33:51.484Z,7.63
2022-08-19T00:36:18.612Z,9.60
2022-08-19T00:38:45.747Z,8.33
2022-08-19T00:41:19.038Z,11.10
2022-08-19T00:44:08.590Z,7.53
2022-08-19T00:46:38.411Z,8.70
2022-08-19T00:49:15.489Z,7.27
2022-08-19T00:51:45.875Z,7.93
2022-08-19T00:54:13.230Z,7.57
2022-08-19T00:56:41.699Z,7.70
2022-08-19T00:59:10.040Z,10.07
2022-08-19T01:01:38.597Z,6.37
2022-08-19T01:04:05.703Z,7.30
2022-08-19T01:06:33.554Z,11.03
2022-08-19T01:09:00.857Z,7.63
2022-08-19T01:11:29.556Z,9.60
2022-08-19T01:13:56.557Z,9.13
2022-08-19T01:16:26.232Z,9.17
2022-08-19T01:18:53.325Z,9.93
2022-08-19T01:21:32.256Z,9.43
2022-08-19T01:23:59.953Z,8.53
2022-08-19T01:26:27.838Z,9.33
2022-08-19T01:29:00.699Z,8.87
2022-08-19T01:31:33.570Z,8.23
2022-08-19T01:34:02.161Z,9.27
2022-08-19T01:36:34.382Z,11.03
2022-08-19T01:39:04.332Z,13.00
2022-08-19T01:41:31.135Z,9.90
2022-08-19T01:44:13.698Z,7.30
2022-08-19T01:46:46.589Z,11.57
2022-08-19T01:49:15.014Z,9.57
2022-08-19T01:51:41.840Z,10.90
2022-08-19T01:54:10.726Z,11.03
2022-08-19T01:56:39.603Z,11.47
2022-08-19T01:59:11.727Z,11.43
2022-08-19T02:01:39.004Z,10.43
2022-08-19T02:04:06.746Z,11.83
2022-08-19T02:06:34.182Z,12.60
2022-08-19T02:09:01.477Z,11.63
2022-08-19T02:11:35.001Z,9.40
2022-08-19T02:14:04.381Z,9.93
2022-08-19T02:16:31.684Z,9.33
2022-08-19T02:19:01.509Z,9.90
2022-08-19T02:21:29.924Z,11.10
2022-08-19T02:23:57.072Z,9.47
2022-08-19T02:26:24.523Z,11.30
2022-08-19T02:28:51.407Z,11.90
2022-08-19T02:31:21.856Z,10.33
2022-08-19T02:33:49.366Z,12.20
2022-08-19T02:36:20.652Z,9.63
2022-08-19T02:38:55.137Z,11.90
2022-08-19T02:41:27.201Z,11.17
2022-08-19T02:44:28.554Z,9.67
2022-08-19T02:46:46.226Z,8.30
2022-08-19T02:49:13.233Z,9.93
2022-08-19T02:51:44.834Z,8.87
2022-08-19T02:54:13.774Z,8.57
2022-08-19T02:56:42.762Z,9.63
2022-08-19T02:59:11.258Z,9.50
2022-08-19T03:01:41.762Z,9.90
2022-08-19T03:04:12.705Z,9.30
2022-08-19T03:06:41.141Z,10.10
2022-08-19T03:09:08.625Z,9.20
2022-08-19T03:11:35.627Z,10.53
2022-08-19T03:14:04.622Z,10.53
2022-08-19T03:16:34.366Z,8.13
2022-08-19T03:19:02.843Z,9.33
2022-08-19T03:21:35.063Z,7.50
2022-08-19T03:24:06.082Z,10.13
2022-08-19T03:26:33.424Z,8.07
2022-08-19T03:29:04.950Z,9.20
2022-08-19T03:31:44.116Z,12.87
2022-08-19T03:34:21.834Z,9.27
2022-08-19T03:36:49.201Z,8.20
2022-08-19T03:39:16.600Z,9.03
2022-08-19T03:41:46.546Z,7.03
2022-08-19T03:44:21.566Z,9.07
2022-08-19T03:46:51.026Z,7.83
2022-08-19T03:49:19.574Z,9.60
2022-08-19T03:51:48.793Z,11.47
2022-08-19T03:54:17.240Z,9.20
2022-08-19T03:56:46.369Z,10.43
2022-08-19T03:59:17.931Z,10.73
2022-08-19T04:01:45.060Z,9.90
2022-08-19T04:04:11.871Z,9.77
2022-08-19T04:06:40.160Z,9.50
2022-08-19T04:09:10.364Z,10.40
2022-08-19T04:11:44.480Z,8.70
2022-08-19T04:14:15.063Z,11.73
2022-08-19T04:16:44.783Z,10.40
2022-08-19T04:19:12.539Z,10.03
2022-08-19T04:21:40.330Z,9.27
2022-08-19T04:24:07.698Z,11.40
2022-08-19T04:26:37.620Z,11.30
2022-08-19T04:29:14.806Z,10.47
2022-08-19T04:31:44.381Z,11.50
2022-08-19T04:34:13.348Z,9.43
2022-08-19T04:36:42.474Z,11.87
2022-08-19T04:39:15.535Z,10.87
2022-08-19T04:42:01.043Z,11.73
2022-08-19T04:44:31.479Z,9.17
2022-08-19T04:47:00.304Z,11.07
2022-08-19T04:49:28.839Z,10.60
2022-08-19T04:51:55.964Z,11.90
2022-08-19T04:54:37.645Z,12.27
2022-08-19T04:57:07.919Z,12.00
2022-08-19T04:59:36.366Z,11.63
2022-08-19T05:02:04.634Z,10.53
2022-08-19T05:04:33.837Z,12.77
2022-08-19T05:07:02.087Z,12.40
2022-08-19T05:09:42.174Z,12.90
2022-08-19T05:12:17.814Z,9.30
2022-08-19T05:14:46.965Z,10.93
2022-08-19T05:17:33.497Z,9.30
2022-08-19T05:20:20.652Z,9.68
2022-08-19T05:22:48.667Z,8.45
2022-08-19T05:25:21.354Z,11.50
2022-08-19T05:27:48.852Z,11.95
2022-08-19T05:30:16.506Z,9.63
2022-08-19T05:32:43.746Z,8.93
2022-08-19T05:35:10.855Z,9.30
2022-08-19T05:37:37.686Z,11.38
2022-08-19T05:40:05.363Z,9.07
2022-08-19T05:42:32.629Z,10.43
2022-08-19T05:44:59.518Z,11.68
2022-08-19T05:47:26.431Z,12.48
2022-08-19T05:49:53.246Z,8.07
2022-08-19T05:52:25.823Z,8.35
2022-08-19T05:54:55.988Z,8.63
2022-08-19T05:57:24.413Z,10.35
2022-08-19T05:59:53.089Z,9.00
2022-08-19T06:02:25.903Z,8.20
2022-08-19T06:04:52.800Z,9.48
2022-08-19T06:07:20.384Z,7.22
2022-08-19T06:09:58.897Z,8.60
2022-08-19T06:12:32.320Z,7.95
2022-08-19T06:15:01.153Z,6.70
2022-08-19T06:17:31.608Z,7.03
2022-08-19T06:19:59.677Z,6.82
2022-08-19T06:22:27.751Z,5.65
2022-08-19T06:24:55.585Z,5.18
2022-08-19T06:27:23.266Z,6.00
2022-08-19T06:29:50.320Z,7.07
2022-08-19T06:32:20.096Z,5.72
2022-08-19T06:34:47.585Z,6.45
2022-08-19T06:37:14.590Z,7.13
2022-08-19T06:39:43.438Z,7.25
2022-08-19T06:42:12.571Z,5.45
2022-08-19T06:44:42.676Z,5.75
2022-08-19T06:47:14.690Z,5.68
2022-08-19T06:49:43.341Z,4.95
2022-08-19T06:52:15.418Z,5.63
2022-08-19T06:54:55.892Z,8.65
2022-08-19T06:57:25.182Z,5.82
2022-08-19T06:59:52.410Z,6.07
2022-08-19T07:02:21.578Z,6.57
2022-08-19T07:04:52.573Z,7.53
2022-08-19T07:07:21.828Z,6.82
2022-08-19T07:09:51.785Z,7.05
2022-08-19T07:12:35.714Z,8.05
2022-08-19T07:15:06.127Z,5.82
2022-08-19T07:17:34.671Z,9.63
2022-08-19T07:20:05.540Z,6.82
2022-08-19T07:22:41.113Z,6.00
2022-08-19T07:25:10.404Z,5.55
2022-08-19T07:27:39.771Z,5.45
2022-08-19T07:30:11.652Z,6.38
2022-08-19T07:32:39.351Z,6.10
2022-08-19T07:35:07.360Z,5.93
2022-08-19T07:37:36.489Z,6.32
2022-08-19T07:40:05.211Z,6.32
2022-08-19T07:42:32.032Z,8.60
2022-08-19T07:44:59.581Z,7.20
2022-08-19T07:47:50.347Z,7.85
2022-08-19T07:50:15.155Z,6.90
2022-08-19T07:52:45.731Z,7.30
2022-08-19T07:55:40.702Z,7.30
2022-08-19T07:58:05.924Z,6.63
2022-08-19T08:00:33.110Z,7.03
2022-08-19T08:02:59.911Z,7.05
2022-08-19T08:05:45.278Z,6.95
2022-08-19T08:08:32.279Z,9.38
2022-08-19T08:11:00.406Z,5.75
2022-08-19T08:13:28.089Z,6.68
2022-08-19T08:15:56.581Z,5.97
2022-08-19T08:18:28.019Z,5.47
2022-08-19T08:20:58.355Z,4.90
2022-08-19T08:23:26.866Z,5.95
2022-08-19T08:25:57.690Z,4.85
2022-08-19T08:28:26.188Z,5.50
2022-08-19T08:30:56.688Z,5.88
2022-08-19T08:33:30.103Z,6.20
2022-08-19T08:36:11.931Z,7.05
2022-08-19T08:38:40.501Z,6.30
2022-08-19T08:41:28.751Z,6.88
2022-08-19T08:43:58.052Z,6.40
2022-08-19T08:46:42.773Z,9.02
2022-08-19T08:49:21.484Z,6.30
2022-08-19T08:52:00.430Z,6.55
2022-08-19T08:54:34.714Z,6.10
2022-08-19T08:57:08.519Z,8.35
2022-08-19T08:59:39.692Z,7.95
2022-08-19T09:02:06.622Z,8.88
2022-08-19T09:04:35.953Z,6.80
2022-08-19T09:07:34.849Z,6.78
2022-08-19T09:10:14.979Z,6.60
2022-08-19T09:13:09.451Z,7.25
2022-08-19T09:15:45.402Z,6.38
2022-08-19T09:18:19.354Z,6.35
2022-08-19T09:20:50.519Z,5.97
2022-08-19T09:23:17.536Z,4.18
2022-08-19T09:25:44.442Z,5.50
2022-08-19T09:28:20.326Z,6.00
2022-08-19T09:30:53.104Z,5.45
2022-08-19T09:33:20.733Z,5.82
2022-08-19T09:35:53.177Z,5.75
2022-08-19T09:38:21.923Z,5.93
2022-08-19T09:40:50.078Z,6.05
2022-08-19T09:43:33.068Z,6.30
2022-08-19T09:46:02.263Z,7.43
2022-08-19T09:48:29.202Z,4.35
2022-08-19T09:50:56.179Z,4.82
2022-08-19T09:53:25.612Z,5.55
2022-08-19T09:55:53.190Z,4.53
2022-08-19T09:58:23.478Z,5.53
2022-08-19T10:00:54.722Z,4.90
2022-08-19T10:03:21.687Z,4.88
2022-08-19T10:05:55.453Z,5.63
2022-08-19T10:08:27.382Z,4.63
2022-08-19T10:10:55.930Z,4.35
2022-08-19T10:13:25.977Z,4.35
2022-08-19T10:15:54.611Z,4.35
2022-08-19T10:18:25.390Z,4.30
2022-08-19T10:20:54.606Z,4.82
2022-08-19T10:23:22.058Z,4.85
2022-08-19T10:25:50.722Z,4.57
2022-08-19T10:28:19.213Z,5.40
2022-08-19T10:30:47.488Z,4.13
2022-08-19T10:33:16.156Z,4.30
2022-08-19T10:36:05.859Z,4.60
2022-08-19T10:38:33.115Z,5.35
2022-08-19T10:41:14.938Z,5.72
2022-08-19T10:43:43.060Z,5.07
2022-08-19T10:46:14.020Z,4.78
2022-08-19T10:48:44.614Z,5.47
2022-08-19T10:51:30.720Z,4.50
2022-08-19T10:53:59.238Z,5.78
2022-08-19T10:56:45.629Z,7.20
2022-08-19T10:59:14.628Z,6.10
2022-08-19T11:01:43.595Z,6.63
2022-08-19T11:04:12.169Z,6.75
2022-08-19T11:06:39.452Z,6.13
2022-08-19T11:09:06.947Z,5.68
2022-08-19T11:11:40.407Z,7.60
2022-08-19T11:14:12.120Z,7.50
2022-08-19T11:16:42.238Z,6.78
2022-08-19T11:19:11.960Z,6.30
2022-08-19T11:21:41.788Z,8.05
2022-08-19T11:24:12.411Z,8.45
2022-08-19T11:26:40.847Z,8.57
2022-08-19T11:29:14.288Z,8.60
2022-08-19T11:31:44.670Z,6.93
2022-08-19T11:34:14.382Z,8.75
2022-08-19T11:36:43.840Z,8.50
2022-08-19T11:39:11.920Z,8.40
2022-08-19T11:41:38.796Z,8.23
2022-08-19T11:44:08.661Z,8.70
2022-08-19T11:46:37.947Z,9.73
2022-08-19T11:49:08.619Z,8.63
2022-08-19T11:51:37.692Z,8.05
2022-08-19T11:54:06.576Z,8.45
2022-08-19T11:56:33.392Z,8.48
2022-08-19T11:59:01.622Z,8.23
2022-08-19T12:01:29.937Z,7.85
2022-08-19T12:03:57.730Z,9.23
2022-08-19T12:06:30.360Z,9.05
2022-08-19T12:08:58.394Z,10.75
2022-08-19T12:11:26.603Z,8.20
2022-08-19T12:13:54.620Z,9.82
2022-08-19T12:16:27.866Z,9.20
2022-08-19T12:18:56.684Z,12.80
2022-08-19T12:21:27.613Z,9.35
2022-08-19T12:23:56.051Z,7.32
2022-08-19T12:26:23.862Z,8.25
2022-08-19T12:28:51.074Z,7.97
2022-08-19T12:31:18.928Z,7.70
2022-08-19T12:33:45.857Z,8.75
2022-08-19T12:36:15.466Z,7.15
2022-08-19T12:38:42.748Z,7.53
2022-08-19T12:41:13.364Z,9.45
2022-08-19T12:43:40.187Z,9.85
2022-08-19T12:46:07.244Z,10.07
2022-08-19T12:48:38.115Z,10.00
2022-08-19T12:51:08.819Z,11.55
2022-08-19T12:53:39.424Z,13.05
2022-08-19T12:56:08.130Z,12.63
2022-08-19T12:58:40.098Z,11.52
2022-08-19T13:01:09.156Z,14.57
2022-08-19T13:03:40.342Z,12.55
2022-08-19T13:06:08.342Z,11.65
2022-08-19T13:08:35.191Z,14.90
2022-08-19T13:11:21.537Z,11.93
2022-08-19T13:13:51.927Z,11.70
2022-08-19T13:16:21.047Z,11.35
2022-08-19T13:18:48.610Z,11.18
2022-08-19T13:21:15.498Z,15.68
2022-08-19T13:23:42.431Z,12.00
2022-08-19T13:26:11.483Z,12.60
2022-08-19T13:28:57.215Z,10.73
2022-08-19T13:31:44.925Z,13.48
2022-08-19T13:34:12.187Z,13.07
2022-08-19T13:36:39.697Z,15.55
2022-08-19T13:39:09.388Z,17.83
2022-08-19T13:41:37.400Z,23.45
2022-08-19T13:44:05.413Z,19.23
2022-08-19T13:46:32.229Z,21.10
2022-08-19T13:48:58.997Z,19.98
2022-08-19T13:51:25.761Z,19.65
2022-08-19T13:53:52.752Z,17.48
2022-08-19T13:56:26.348Z,17.77
2022-08-19T13:58:54.550Z,17.50
2022-08-19T14:01:24.527Z,17.77
2022-08-19T14:03:52.302Z,16.02
2022-08-19T14:06:19.433Z,15.45
2022-08-19T14:08:47.231Z,16.60
2022-08-19T14:11:14.612Z,16.40
2022-08-19T14:13:41.645Z,15.85
2022-08-19T14:16:10.672Z,17.10
2022-08-19T14:18:38.460Z,21.73
2022-08-19T14:21:05.907Z,20.80
2022-08-19T14:23:33.548Z,20.60
2022-08-19T14:26:13.041Z,18.23
2022-08-19T14:28:42.713Z,20.25
2022-08-19T14:31:17.591Z,21.30
2022-08-19T14:33:44.363Z,19.67
2022-08-19T14:36:11.166Z,16.90
2022-08-19T14:38:38.078Z,17.13
2022-08-19T14:41:18.374Z,15.90
2022-08-19T14:43:47.459Z,19.80
2022-08-19T14:46:17.045Z,18.02
2022-08-19T14:48:44.420Z,17.52
2022-08-19T14:51:11.322Z,19.35
2022-08-19T14:53:38.926Z,17.80
2022-08-19T14:56:10.897Z,16.52
2022-08-19T14:58:39.207Z,16.58
2022-08-19T15:01:06.127Z,14.15
2022-08-19T15:03:33.183Z,14.02
2022-08-19T15:06:04.260Z,17.92
2022-08-19T15:08:32.890Z,14.65
2022-08-19T15:11:00.350Z,14.40
2022-08-19T15:13:28.559Z,13.07
2022-08-19T15:15:56.448Z,13.75
2022-08-19T15:18:23.986Z,13.65
2022-08-19T15:20:51.913Z,10.88
2022-08-19T15:23:20.576Z,13.02
2022-08-19T15:25:47.737Z,12.60
2022-08-19T15:28:16.399Z,15.82
2022-08-19T15:30:44.528Z,11.73
2022-08-19T15:33:15.082Z,11.27
2022-08-19T15:35:43.420Z,9.88
2022-08-19T15:38:11.750Z,8.45
2022-08-19T15:40:38.673Z,7.45
2022-08-19T15:43:05.943Z,8.82
2022-08-19T15:45:33.000Z,9.32
2022-08-19T15:48:01.029Z,10.70
2022-08-19T15:50:28.753Z,11.27
2022-08-19T15:52:59.072Z,9.75
2022-08-19T15:55:33.131Z,12.55
2022-08-19T15:58:28.933Z,9.77
2022-08-19T16:01:20.302Z,11.40
2022-08-19T16:04:13.820Z,13.27
2022-08-19T16:06:54.283Z,15.05
2022-08-19T16:09:27.367Z,14.20
2022-08-19T16:12:02.030Z,13.88
2022-08-19T16:14:35.310Z,12.43
2022-08-19T16:17:02.195Z,15.82
2022-08-19T16:19:29.150Z,11.20
2022-08-19T16:21:57.136Z,12.20
2022-08-19T16:24:27.882Z,10.75
2022-08-19T16:26:56.055Z,11.25
2022-08-19T16:29:34.669Z,10.85
2022-08-19T16:32:10.045Z,11.90
2022-08-19T16:34:38.665Z,10.48
2022-08-19T16:37:05.533Z,10.27
2022-08-19T16:39:32.370Z,10.20
2022-08-19T16:41:59.611Z,12.20
2022-08-19T16:44:29.671Z,14.80
2022-08-19T16:46:59.812Z,14.30
2022-08-19T16:49:54.540Z,16.92
2022-08-19T16:52:19.597Z,17.70
2022-08-19T16:54:47.364Z,18.42
2022-08-19T16:57:14.752Z,20.75
2022-08-19T16:59:43.699Z,19.23
2022-08-19T17:02:15.996Z,15.65
2022-08-19T17:04:42.820Z,19.60
2022-08-19T17:07:10.702Z,16.85
2022-08-19T17:09:38.391Z,18.25
2022-08-19T17:12:05.652Z,16.40
2022-08-19T17:14:32.413Z,17.02
2022-08-19T17:16:59.187Z,17.45
2022-08-19T17:19:26.049Z,23.17
2022-08-19T17:21:52.977Z,13.18
2022-08-19T17:24:19.878Z,13.73
2022-08-19T17:26:46.738Z,19.55
2022-08-19T17:29:14.190Z,20.10
2022-08-19T17:31:40.993Z,16.55
2022-08-19T17:34:09.230Z,15.93
2022-08-19T17:36:36.169Z,19.05
2022-08-19T17:39:05.053Z,16.02
2022-08-19T17:41:34.244Z,17.35
2022-08-19T17:44:02.393Z,17.88
2022-08-19T17:46:30.105Z,15.85
2022-08-19T17:48:57.829Z,19.38
2022-08-19T17:51:43.232Z,18.35
2022-08-19T17:54:16.799Z,14.85
2022-08-19T17:56:45.254Z,13.13
2022-08-19T17:59:14.260Z,18.42
2022-08-19T18:01:53.873Z,18.52
2022-08-19T18:04:25.510Z,13.88
2022-08-19T18:06:55.032Z,15.95
2022-08-19T18:09:42.261Z,17.42
2022-08-19T18:12:12.768Z,14.93
2022-08-19T18:14:40.362Z,12.00
2022-08-19T18:17:11.019Z,12.63
2022-08-19T18:19:42.434Z,12.95
2022-08-19T18:22:22.879Z,12.75
2022-08-19T18:24:49.949Z,12.48
2022-08-19T18:27:16.844Z,12.10
2022-08-19T18:29:44.589Z,12.52
2022-08-19T18:32:14.666Z,10.70
2022-08-19T18:34:43.192Z,12.98
2022-08-19T18:37:11.104Z,10.43
2022-08-19T18:39:57.188Z,14.52
2022-08-19T18:42:43.142Z,9.82
2022-08-19T18:45:28.977Z,11.27
2022-08-19T18:48:26.828Z,11.27
2022-08-19T18:50:56.819Z,9.98
2022-08-19T18:53:24.687Z,10.32
2022-08-19T18:55:55.037Z,9.45
2022-08-19T18:58:33.181Z,8.57
2022-08-19T19:01:06.833Z,8.00
2022-08-19T19:03:33.977Z,7.40
2022-08-19T19:06:01.386Z,8.60
2022-08-19T19:08:28.167Z,8.27
2022-08-19T19:10:56.637Z,7.53
2022-08-19T19:13:23.444Z,9.35
2022-08-19T19:15:50.234Z,8.50
2022-08-19T19:18:17.031Z,8.82
2022-08-19T19:20:43.765Z,6.65
2022-08-19T19:23:10.535Z,9.07
2022-08-19T19:25:49.571Z,6.85
2022-08-19T19:28:29.259Z,8.70
2022-08-19T19:31:00.451Z,7.72
2022-08-19T19:33:28.215Z,7.63
2022-08-19T19:35:55.475Z,9.32
2022-08-19T19:38:22.279Z,10.60
2022-08-19T19:40:49.115Z,7.75
2022-08-19T19:43:17.171Z,10.98
2022-08-19T19:45:44.742Z,11.57
2022-08-19T19:48:13.501Z,10.50
2022-08-19T19:50:40.771Z,9.60
2022-08-19T19:53:07.550Z,11.07
2022-08-19T19:55:34.468Z,11.13
2022-08-19T19:58:01.232Z,13.10
2022-08-19T20:00:28.009Z,10.77
2022-08-19T20:02:55.917Z,10.10
2022-08-19T20:05:24.000Z,10.23
2022-08-19T20:08:11.218Z,9.20
2022-08-19T20:10:39.265Z,10.77
2022-08-19T20:13:07.518Z,8.93
2022-08-19T20:15:39.058Z,11.50
2022-08-19T20:18:08.697Z,9.50
2022-08-19T20:20:35.744Z,10.30
2022-08-19T20:23:02.671Z,8.75
2022-08-19T20:25:30.428Z,10.05
2022-08-19T20:27:57.411Z,8.15
2022-08-19T20:30:24.861Z,11.93
2022-08-19T20:32:52.081Z,7.22
2022-08-19T20:35:21.264Z,9.55
2022-08-19T20:37:49.153Z,10.07
2022-08-19T20:40:20.327Z,8.02
2022-08-19T20:42:50.560Z,8.23
2022-08-19T20:45:32.359Z,10.02
2022-08-19T20:48:02.459Z,9.75
2022-08-19T20:50:30.364Z,7.85
2022-08-19T20:52:57.825Z,8.90
2022-08-19T20:55:26.433Z,9.50
2022-08-19T20:57:53.814Z,8.55
2022-08-19T21:00:20.872Z,9.40
2022-08-19T21:02:47.629Z,10.15
2022-08-19T21:05:15.114Z,9.20
2022-08-19T21:07:42.806Z,10.07
2022-08-19T21:10:09.623Z,10.25
2022-08-19T21:12:36.743Z,8.93
2022-08-19T21:15:04.600Z,8.55
2022-08-19T21:17:31.621Z,8.75
2022-08-19T21:19:58.430Z,10.75
2022-08-19T21:22:25.198Z,7.30
2022-08-19T21:24:52.058Z,9.02
2022-08-19T21:27:18.828Z,8.98
2022-08-19T21:29:45.610Z,8.75
2022-08-19T21:32:14.125Z,7.47
2022-08-19T21:34:43.929Z,10.38
2022-08-19T21:37:18.954Z,8.38
2022-08-19T21:39:53.920Z,6.28
2022-08-19T21:42:22.093Z,6.07
2022-08-19T21:44:49.366Z,7.75
2022-08-19T21:47:16.213Z,7.00
2022-08-19T21:49:43.041Z,7.75
2022-08-19T21:52:09.823Z,8.48
2022-08-19T21:54:38.245Z,7.68
2022-08-19T21:57:10.522Z,7.10
2022-08-19T21:59:43.828Z,9.07
2022-08-19T22:02:21.337Z,7.18
2022-08-19T22:04:50.803Z,8.38
2022-08-19T22:07:19.088Z,10.10
2022-08-19T22:09:47.365Z,8.07
2022-08-19T22:12:32.835Z,8.52
2022-08-19T22:15:00.019Z,8.82
2022-08-19T22:17:27.606Z,7.85
2022-08-19T22:19:56.292Z,9.43
2022-08-19T22:22:28.620Z,9.57
2022-08-19T22:25:06.675Z,7.55
2022-08-19T22:27:33.493Z,7.20
2022-08-19T22:30:00.251Z,8.27
2022-08-19T22:32:28.542Z,7.18
2022-08-19T22:34:58.753Z,5.13
2022-08-19T22:37:28.844Z,6.00
2022-08-19T22:39:55.955Z,5.15
2022-08-19T22:42:22.870Z,7.25
2022-08-19T22:44:49.834Z,5.35
2022-08-19T22:47:16.604Z,6.13
2022-08-19T22:49:44.274Z,5.88
2022-08-19T22:52:18.185Z,5.88
2022-08-19T22:54:50.795Z,6.28
2022-08-19T22:57:21.345Z,5.65
2022-08-19T22:59:50.676Z,7.35
2022-08-19T23:02:19.944Z,5.68
2022-08-19T23:04:46.740Z,7.97
2022-08-19T23:07:13.880Z,6.63
2022-08-19T23:09:40.657Z,7.50
2022-08-19T23:12:09.268Z,9.30
2022-08-19T23:14:37.461Z,8.07
2022-08-19T23:17:05.275Z,8.10
2022-08-19T23:19:33.249Z,6.78
2022-08-19T23:22:00.290Z,9.48
2022-08-19T23:24:27.092Z,10.90
2022-08-19T23:27:12.435Z,9.00
2022-08-19T23:29:58.019Z,9.45
2022-08-19T23:32:25.553Z,7.78
2022-08-19T23:34:55.845Z,10.23
2022-08-19T23:37:23.077Z,10.55
2022-08-19T23:39:51.002Z,10.88
2022-08-19T23:42:18.020Z,7.85
2022-08-19T23:44:52.157Z,8.90
2022-08-19T23:47:20.997Z,9.20
2022-08-19T23:49:48.724Z,7.32
2022-08-19T23:52:15.616Z,9.70
2022-08-19T23:54:43.648Z,11.70
2022-08-19T23:57:13.422Z,8.40
2022-08-19T23:59:42.678Z,6.53
